Latest Weather Observations for Merimbula

IDN60801

Issued at 12:12 pm EDT Friday 18 October 2019 (issued every 10 minutes, with the page automatically refreshed every 10 minutes)

About weather observations | Map of weather stations | Latest weather observations for NSW | Other Formats
Station Details ID: 069147 Name: MERIMBULA AIRPORT AWS Lat: -36.91 Lon: 149.90 Height: 1.5 m
Data from the previous 72 hours. | See also: Recent months at Merimbula
Date/Time
EDT
Temp
°C
App
Temp
°C
Dew
Point
°C
Rel
Hum
%
Delta-T
°C
Wind Press
QNH
hPa
Press
MSL
hPa
Rain since
9am
mm
Dir  Spd
km/h
Gust
km/h
Spd
kts
Gust
kts
18/12:00pm 18.4 13.8 6.3 45 6.0 NE 20 35 11 19 1013.9 1013.9 0.0
18/11:30am 18.2 13.6 5.4 43 6.2 NE 19 30 10 16 1014.4 1014.4 0.0
18/11:00am 17.6 12.5 4.2 41 6.3 NE 20 30 11 16 1014.8 1014.8 0.0
18/10:30am 18.0 13.7 3.1 37 6.9 NE 15 22 8 12 1014.9 1014.9 0.0
18/10:00am 17.7 14.8 1.7 34 7.2 NNE 6 11 3 6 1014.9 1014.9 0.0
18/09:30am 17.0 13.6 1.8 36 6.8 SW 9 17 5 9 1015.2 1015.2 0.0
18/09:00am 16.4 12.4 3.1 41 6.1 WSW 13 26 7 14 1015.4 1015.4 0.2
18/08:30am 15.4 11.8 3.2 44 5.5 WSW 11 24 6 13 1015.5 1015.5 0.2
18/08:00am 14.6 10.3 3.1 46 5.2 W 15 26 8 14 1015.5 1015.5 0.2
18/07:30am 13.3 9.5 3.9 53 4.3 W 13 19 7 10 1015.3 1015.3 0.2
18/07:00am 11.1 8.6 4.8 65 2.9 NNW 7 11 4 6 1014.9 1014.9 0.2
18/06:30am 8.9 6.7 3.3 68 2.4 WNW 4 7 2 4 1014.3 1014.3 0.2
18/06:00am 10.3 7.6 2.7 59 3.3 NW 6 13 3 7 1013.6 1013.6 0.2
18/05:30am 11.2 7.7 3.3 58 3.5 W 11 20 6 11 1013.0 1013.0 0.2
18/05:00am 11.6 8.0 3.1 56 3.7 WSW 11 19 6 10 1012.6 1012.6 0.2
18/04:30am 11.8 8.2 3.1 55 3.8 WSW 11 19 6 10 1012.2 1012.2 0.2
18/04:00am 11.9 9.1 2.9 54 3.9 WSW 7 17 4 9 1012.1 1012.1 0.2
18/03:30am 12.4 8.8 2.8 52 4.2 W 11 19 6 10 1012.2 1012.2 0.2
18/03:00am 12.6 8.6 2.7 51 4.3 W 13 30 7 16 1012.0 1012.0 0.2
18/02:30am 13.2 8.1 3.0 50 4.5 WSW 19 30 10 16 1011.6 1011.6 0.2
18/02:12am 13.3 6.5 3.1 50 4.5 WSW 28 50 15 27 1011.5 1011.5 0.2
18/02:00am 13.3 7.3 3.4 51 4.4 W 24 39 13 21 1011.5 1011.5 0.2
18/01:30am 13.0 8.0 3.4 52 4.3 W 19 30 10 16 1011.7 1011.7 0.2
18/01:00am 12.9 8.2 3.3 52 4.3 W 17 32 9 17 1011.7 1011.7 0.2
18/12:30am 13.0 7.3 3.1 51 4.4 W 22 33 12 18 1011.4 1011.4 0.2
18/12:21am 13.1 6.3 3.2 51 4.4 W 28 46 15 25 1011.4 1011.4 0.2
18/12:00am 12.9 7.6 3.0 51 4.4 WSW 20 33 11 18 1011.7 1011.7 0.2
 
Date/Time
EDT
Temp
°C
App
Temp
°C
Dew
Point
°C
Rel
Hum
%
Delta-T
°C
Wind Press
QNH
hPa
Press
MSL
hPa
Rain since
9am
mm
Dir  Spd
km/h
Gust
km/h
Spd
kts
Gust
kts
17/11:30pm 12.9 8.6 3.0 51 4.4 WSW 15 28 8 15 1011.5 1011.5 0.2
17/11:00pm 13.0 7.3 3.1 51 4.4 WSW 22 43 12 23 1011.1 1011.1 0.2
17/10:30pm 12.1 8.5 3.1 54 4.0 WSW 11 20 6 11 1010.9 1010.9 0.2
17/10:00pm 12.3 8.9 3.8 56 3.8 SW 11 15 6 8 1010.7 1010.7 0.2
17/09:30pm 10.7 7.6 5.5 70 2.4 SSW 11 15 6 8 1010.5 1010.5 0.2
17/09:00pm 10.1 7.9 5.5 73 2.1 SW 6 9 3 5 1010.0 1010.0 0.2
17/08:30pm 10.2 8.0 5.2 71 2.3 WNW 6 9 3 5 1009.2 1009.2 0.2
17/08:00pm 11.5 8.8 5.4 66 2.8 WSW 9 15 5 8 1009.0 1009.0 0.2
17/07:30pm 13.1 8.4 5.0 58 3.7 SSW 19 30 10 16 1009.6 1009.6 0.2
17/07:00pm 13.9 9.1 4.8 54 4.2 SSW 19 28 10 15 1008.7 1008.7 0.2
17/06:30pm 14.3 10.0 5.1 54 4.3 SSW 17 26 9 14 1008.0 1008.0 0.2
17/06:00pm 14.6 10.3 5.1 53 4.5 SW 17 28 9 15 1007.4 1007.4 0.2
17/05:30pm 15.0 10.0 4.7 50 4.8 SW 20 35 11 19 1006.9 1006.9 0.2
17/05:00pm 16.0 11.8 5.9 51 4.9 SW 17 30 9 16 1006.2 1006.2 0.2
17/04:30pm 15.1 9.8 4.8 50 4.8 SW 22 35 12 19 1005.4 1005.4 0.2
17/04:03pm 16.6 9.6 4.0 43 5.9 SSW 30 48 16 26 1004.9 1004.9 0.2
17/04:00pm 16.7 9.1 3.1 40 6.2 SSW 32 48 17 26 1005.0 1005.0 0.2
17/03:31pm 21.4 13.3 -0.6 23 9.7 WNW 32 50 17 27 1003.7 1003.7 0.2
17/03:30pm 21.4 13.1 0.0 24 9.6 W 33 50 18 27 1003.8 1003.8 0.2
17/03:15pm 21.0 13.4 -2.1 21 9.9 W 28 50 15 27 1003.8 1003.8 0.2
17/03:00pm 21.2 14.8 -2.0 21 10.0 WSW 22 39 12 21 1003.6 1003.6 0.2
17/02:30pm 21.6 13.3 -4.5 17 10.7 W 30 48 16 26 1003.4 1003.4 0.2
17/02:26pm 21.6 13.7 -4.5 17 10.7 W 28 48 15 26 1003.6 1003.6 0.2
17/02:09pm 21.7 13.7 -2.2 20 10.2 WNW 30 44 16 24 1003.4 1003.4 0.2
17/02:05pm 20.5 12.3 -3.9 19 10.0 WNW 30 46 16 25 1003.4 1003.4 0.2
17/02:00pm 20.9 13.2 -2.9 20 10.0 W 28 48 15 26 1003.4 1003.4 0.2
17/01:30pm 21.8 13.3 -1.5 21 10.1 WNW 33 52 18 28 1003.3 1003.3 0.2
17/01:00pm 21.9 14.1 1.6 26 9.4 WNW 32 54 17 29 1003.5 1003.5 0.0
17/12:35pm 21.6 13.4 2.8 29 8.9 NW 35 54 19 29 1003.8 1003.8 0.0
17/12:30pm 21.9 14.0 2.1 27 9.3 NW 33 46 18 25 1003.6 1003.6 0.0
17/12:03pm 21.3 17.5 5.6 36 7.8 NNW 15 46 8 25 1003.8 1003.8 0.0
17/12:00pm 20.5 18.4 8.2 45 6.4 NNW 9 20 5 11 1003.9 1003.9 0.0
17/11:30am 16.8 14.8 11.5 71 2.9 ESE 13 17 7 9 1003.8 1003.8 0.0
17/11:00am 18.5 16.4 11.1 62 4.0 E 13 19 7 10 1004.4 1004.4 0.0
17/10:30am 18.4 16.8 11.7 65 3.7 E 11 19 6 10 1004.3 1004.3 0.0
17/10:00am 18.0 16.7 11.3 65 3.7 E 9 11 5 6 1004.9 1004.9 0.0
17/09:30am 17.0 16.1 11.3 69 3.1 E 7 13 4 7 1005.2 1005.2 0.0
17/09:00am 16.3 17.2 13.0 81 1.8 CALM 0 0 0 0 1005.3 1005.3 1.2
17/08:30am 13.8 14.5 12.2 90 0.9 CALM 0 0 0 0 1005.4 1005.4 1.2
17/08:00am 12.2 11.3 11.4 95 0.4 SW 7 11 4 6 1005.7 1005.7 1.2
17/07:30am 11.1 11.3 10.5 96 0.3 CALM 0 0 0 0 1006.0 1006.0 1.2
17/07:00am 10.0 9.9 9.4 96 0.3 CALM 0 0 0 0 1006.2 1006.2 1.2
17/06:30am 9.2 7.5 8.4 95 0.4 SSW 7 9 4 5 1006.4 1006.4 1.2
17/06:00am 8.9 7.1 8.1 95 0.4 WSW 7 9 4 5 1006.5 1006.5 1.2
17/05:30am 9.4 7.9 8.6 95 0.4 SW 6 9 3 5 1006.5 1006.5 1.2
17/05:00am 9.7 8.1 8.9 95 0.4 SW 7 9 4 5 1006.4 1006.4 1.2
17/04:51am 9.6 8.0 8.8 95 0.4 SSW 7 9 4 5 1006.3 1006.3 1.2
17/04:49am 9.7 8.1 8.9 95 0.4 SSW 7 9 4 5 1006.3 1006.3 1.2
17/04:31am 9.5 7.9 8.6 94 0.4 SSW 7 9 4 5 1006.4 1006.4 1.2
17/04:30am 9.6 8.0 8.7 94 0.4 SSW 7 9 4 5 1006.4 1006.4 1.2
17/04:00am 9.7 9.4 8.6 93 0.5 CALM 0 0 0 0 1006.6 1006.6 1.2
17/03:30am 10.7 10.7 9.8 94 0.5 CALM 0 0 0 0 1007.1 1007.1 1.2
17/03:00am 10.8 10.8 9.9 94 0.5 CALM 0 0 0 0 1007.4 1007.4 1.2
17/02:30am 11.4 11.5 10.3 93 0.6 CALM 0 0 0 0 1007.4 1007.4 1.2
17/02:00am 11.4 11.1 10.1 92 0.7 E 2 7 1 4 1007.5 1007.5 1.2
17/01:30am 12.6 11.7 11.3 92 0.7 SW 7 11 4 6 1008.0 1008.0 1.2
17/01:00am 13.3 12.3 12.2 93 0.6 NW 9 13 5 7 1008.4 1008.4 1.2
17/12:30am 13.5 12.5 12.4 93 0.6 NW 9 13 5 7 1008.6 1008.6 1.2
17/12:00am 13.6 14.3 12.3 92 0.7 CALM 0 0 0 0 1008.8 1008.8 1.2
 
Date/Time
EDT
Temp
°C
App
Temp
°C
Dew
Point
°C
Rel
Hum
%
Delta-T
°C
Wind Press
QNH
hPa
Press
MSL
hPa
Rain since
9am
mm
Dir  Spd
km/h
Gust
km/h
Spd
kts
Gust
kts
16/11:30pm 13.9 14.7 12.6 92 0.7 CALM 0 0 0 0 1008.6 1008.6 1.2
16/11:02pm 14.3 15.2 12.9 91 0.8 CALM 0 0 0 0 1008.7 1008.7 1.2
16/11:00pm 14.3 15.2 12.9 91 0.8 CALM 0 0 0 0 1008.7 1008.7 1.2
16/10:30pm 14.6 15.6 13.1 91 0.8 CALM 0 0 0 0 1009.0 1009.0 1.2
16/10:00pm 14.4 15.3 13.0 91 0.8 CALM 0 0 0 0 1008.9 1008.9 1.2
16/09:30pm 14.4 15.3 13.0 91 0.8 CALM 0 0 0 0 1008.7 1008.7 1.2
16/09:02pm 14.3 15.1 12.7 90 0.9 CALM 0 0 0 0 1009.0 1009.0 1.2
16/09:00pm 14.3 15.1 12.7 90 0.9 CALM 0 0 0 0 1008.9 1008.9 1.2
16/08:30pm 14.3 13.5 12.9 91 0.8 N 9 17 5 9 1008.3 1008.3 1.2
16/08:00pm 14.2 14.6 12.6 90 0.9 NNE 2 9 1 5 1009.1 1009.1 1.2
16/07:30pm 14.6 15.5 12.8 89 1.0 CALM 0 0 0 0 1010.1 1010.1 1.2
16/07:00pm 14.8 15.7 12.8 88 1.1 CALM 0 0 0 0 1010.0 1010.0 1.2
16/06:30pm 15.1 16.0 13.0 87 1.2 CALM 0 0 0 0 1010.1 1010.1 1.2
16/06:00pm 14.9 15.7 12.6 86 1.3 CALM 0 0 0 0 1009.2 1009.2 1.2
16/05:30pm 15.4 16.2 12.5 83 1.6 CALM 0 0 0 0 1009.6 1009.6 1.0
16/05:00pm 15.3 14.7 12.2 82 1.7 E 7 11 4 6 1009.1 1009.1 1.0
16/04:30pm 15.2 14.8 12.3 83 1.6 E 6 13 3 7 1009.8 1009.8 0.8
16/04:00pm 16.1 15.6 12.1 77 2.2 ESE 6 13 3 7 1009.8 1009.8 0.2
16/03:30pm 17.5 16.3 11.5 68 3.3 E 9 15 5 8 1008.7 1008.7 0.0
16/03:00pm 17.7 15.8 11.7 68 3.3 E 13 17 7 9 1008.5 1008.5 0.0
16/02:30pm 17.5 15.4 11.3 67 3.4 E 13 24 7 13 1008.5 1008.5 0.0
16/02:00pm 18.6 16.4 12.1 66 3.6 E 15 20 8 11 1009.2 1009.2 0.0
16/01:30pm 18.5 16.1 11.3 63 3.9 E 15 22 8 12 1009.9 1009.9 0.0
16/01:00pm 17.9 15.4 11.2 65 3.6 ENE 15 22 8 12 1009.7 1009.7 0.0
16/12:30pm 17.4 15.1 10.5 64 3.7 ENE 13 20 7 11 1010.3 1010.3 0.0
16/12:00pm 18.0 15.5 10.9 63 3.8 E 15 24 8 13 1010.8 1010.8 0.0
16/11:30am 18.1 15.8 10.5 61 4.1 E 13 20 7 11 1010.9 1010.9 0.0
16/11:00am 17.5 15.4 9.7 60 4.1 ESE 11 17 6 9 1011.8 1011.8 0.0
16/10:30am 18.0 15.7 10.6 62 4.0 ESE 13 17 7 9 1011.8 1011.8 0.0
16/10:00am 17.6 15.9 9.8 60 4.1 E 9 15 5 8 1012.3 1012.3 0.0
16/09:30am 16.1 14.1 8.8 62 3.7 ESE 9 19 5 10 1012.5 1012.5 0.0
16/09:00am 16.7 15.3 9.6 63 3.7 ESE 7 13 4 7 1012.8 1012.8 0.0
16/08:30am 16.1 14.9 10.2 68 3.1 ESE 7 13 4 7 1012.8 1012.8 0.0
16/08:00am 15.2 13.5 10.0 71 2.7 SE 9 11 5 6 1013.0 1013.0 0.0
16/07:30am 14.6 14.8 10.4 76 2.2 CALM 0 0 0 0 1012.7 1012.7 0.0
16/07:00am 14.2 14.5 10.8 80 1.8 CALM 0 0 0 0 1013.2 1013.2 0.0
16/06:30am 14.0 14.3 10.8 81 1.7 CALM 0 0 0 0 1013.1 1013.1 0.0
16/06:00am 14.2 14.5 10.8 80 1.8 CALM 0 0 0 0 1013.1 1013.1 0.0
16/05:30am 13.8 14.0 10.4 80 1.8 CALM 0 0 0 0 1012.7 1012.7 0.0
16/05:00am 14.3 14.5 10.5 78 2.0 CALM 0 0 0 0 1012.4 1012.4 0.0
16/04:30am 14.6 14.8 10.6 77 2.1 CALM 0 0 0 0 1012.9 1012.9 0.0
16/04:00am 14.4 14.6 10.6 78 2.0 CALM 0 0 0 0 1012.7 1012.7 0.0
16/03:30am 14.7 14.9 10.7 77 2.1 CALM 0 0 0 0 1012.7 1012.7 0.0
16/03:00am 14.9 15.1 10.7 76 2.2 CALM 0 0 0 0 1013.0 1013.0 0.0
16/02:30am 15.0 15.1 10.2 73 2.5 CALM 0 0 0 0 1013.1 1013.1 0.0
16/02:00am 15.1 13.9 10.3 73 2.5 SSW 7 11 4 6 1013.5 1013.5 0.0
16/01:30am 14.9 13.7 10.3 74 2.4 S 7 11 4 6 1013.5 1013.5 0.0
16/01:00am 14.7 14.9 10.7 77 2.1 CALM 0 0 0 0 1013.7 1013.7 0.0
16/12:30am 14.8 13.9 10.8 77 2.1 SSW 6 9 3 5 1013.7 1013.7 0.0
16/12:00am 14.7 13.7 10.9 78 2.0 SSW 7 11 4 6 1013.5 1013.5 0.0
 
Date/Time
EDT
Temp
°C
App
Temp
°C
Dew
Point
°C
Rel
Hum
%
Delta-T
°C
Wind Press
QNH
hPa
Press
MSL
hPa
Rain since
9am
mm
Dir  Spd
km/h
Gust
km/h
Spd
kts
Gust
kts
15/11:30pm 15.1 13.0 11.3 78 2.0 SSW 13 19 7 10 1013.8 1013.8 0.0
15/11:00pm 15.5 13.3 10.7 73 2.5 S 13 19 7 10 1013.6 1013.6 0.0
15/10:30pm 15.7 14.4 11.1 74 2.5 SSE 9 13 5 7 1013.5 1013.5 0.0
15/10:00pm 15.8 14.5 11.2 74 2.5 SSE 9 13 5 7 1013.7 1013.7 0.0
15/09:30pm 15.9 14.6 11.1 73 2.6 S 9 17 5 9 1013.7 1013.7 0.0
15/09:00pm 16.0 14.3 11.2 73 2.6 SSE 11 17 6 9 1013.4 1013.4 0.0
15/08:30pm 16.1 14.2 11.9 76 2.3 SE 13 17 7 9 1013.2 1013.2 0.0
15/08:00pm 16.1 14.3 12.1 77 2.2 SSE 13 20 7 11 1012.9 1012.9 0.0
15/07:30pm 16.3 14.2 12.5 78 2.1 SSE 15 26 8 14 1012.2 1012.2 0.0
15/07:00pm 16.2 14.8 12.2 77 2.2 SSE 11 17 6 9 1012.0 1012.0 0.0
15/06:30pm 16.5 14.1 12.5 77 2.2 SSE 17 22 9 12 1011.6 1011.6 0.0
15/06:00pm 16.8 14.7 12.3 75 2.5 SE 15 22 8 12 1010.9 1010.9 0.0
15/05:30pm 17.1 14.2 12.4 74 2.6 SE 19 26 10 14 1010.9 1010.9 0.0
15/05:00pm 17.8 14.8 12.7 72 2.8 SSE 20 33 11 18 1010.7 1010.7 0.0
15/04:30pm 18.1 15.2 12.8 71 3.0 SE 20 30 11 16 1010.8 1010.8 0.0
15/04:00pm 18.8 16.2 13.2 70 3.2 SE 19 30 10 16 1010.9 1010.9 0.0
15/03:30pm 19.2 16.5 13.4 69 3.3 SE 20 28 11 15 1010.8 1010.8 0.0
15/03:00pm 19.2 16.5 13.4 69 3.3 SE 20 32 11 17 1011.1 1011.1 0.0
15/02:30pm 19.5 16.9 13.7 69 3.3 SE 20 32 11 17 1011.3 1011.3 0.0
15/02:00pm 18.4 15.6 13.1 71 3.0 SE 20 32 11 17 1011.4 1011.4 0.0
15/01:30pm 19.4 16.6 13.3 68 3.5 SE 20 28 11 15 1011.5 1011.5 0.0
15/01:00pm 19.6 17.4 13.3 67 3.6 SE 17 28 9 15 1011.6 1011.6 0.0
15/12:30pm 20.0 18.3 13.5 66 3.7 ESE 15 24 8 13 1011.7 1011.7 0.0

Other formats

Comma delimited format used in spreadsheet applications
http://www.bom.gov.au/fwo/IDN60801/IDN60801.95929.axf

JavaScript Object Notation format (JSON) in row-major order
http://www.bom.gov.au/fwo/IDN60801/IDN60801.95929.json

Data quality

Most of these data are generated automatically and are frequently updated. Quality checks on data are not normally performed. It is possible for incorrect values to appear. Refer to information at About Latest Weather Observations and please check the disclaimer before using these data.